Buoy 46612

sailwx.info

Track history (hours):
 
Tides and Currents Weather Stations Pressure Air Temp Water Temp Dewpoint Dewpoint Depression Visibility Wind Speed Wind Dir Waves Ship Positions

Drifting buoy 46612

Last reported at 2014-Dec-20 00:00 UTC. Time now 2014-Dec-20 01:38 UTC.
Position N 29°23' W 137°58'.

Water temperature 20.6 ° C

Date/timePositionNaut miles runAvg speedWind from/ knotsBaromVisibWave heightAir tempDewpointWater temp
2014-Dec-20 00:00N 29°23' W 137°58'0 0.2 20.6
2014-Dec-19 22:00N 29°23' W 137°59'0 0.0 20.8
2014-Dec-19 21:00N 29°23' W 137°59'0 0.2 20.8
2014-Dec-19 19:00N 29°23' W 137°58'0 0.1 20.7
2014-Dec-19 15:00N 29°23' W 137°59'0 0.3 20.7
2014-Dec-19 14:00N 29°23' W 137°59'0 0.1 20.7
2014-Dec-19 13:00N 29°23' W 137°59'0 0.4 20.7
2014-Dec-19 12:00N 29°23' W 137°59'0 0.0 20.7
2014-Dec-19 11:00N 29°23' W 137°59'0 0.1 20.7
2014-Dec-19 09:00N 29°23' W 137°59'0 0.2 20.7
2014-Dec-19 08:00N 29°23' W 137°59'0 0.1 20.7
2014-Dec-19 07:00N 29°23' W 137°59'0 0.2 20.8
2014-Dec-19 06:00N 29°23' W 137°59'0 0.2 20.7
2014-Dec-19 04:00N 29°23' W 137°59'1 0.3 20.7
2014-Dec-19 02:00N 29°23' W 137°60'1 0.6 20.8
2014-Dec-19 00:00N 29°24' W 137°59'2 0.6 20.8
2014-Dec-18 21:00N 29°23' W 138°01'1 0.6 20.8
2014-Dec-18 20:00N 29°23' W 138°00'0 0.5 20.8
2014-Dec-18 19:00N 29°23' W 138°01'0 0.4 20.8
2014-Dec-18 18:00N 29°23' W 138°01'0 0.0 20.8
2014-Dec-18 17:00N 29°23' W 138°01'0 0.2 20.8
2014-Dec-18 15:00N 29°23' W 138°00'1 0.7 20.8
2014-Dec-18 14:00N 29°22' W 138°00'0 0.0 20.8
2014-Dec-18 12:00N 29°22' W 138°00'0 0.0 20.8
2014-Dec-18 11:00N 29°22' W 138°00'0 0.2 20.8
2014-Dec-18 09:00N 29°22' W 138°01'0 0.2 20.8
2014-Dec-18 07:00N 29°23' W 138°01'0 0.3 20.8
2014-Dec-18 06:00N 29°22' W 138°01'1 0.9 20.8
2014-Dec-18 05:00N 29°23' W 138°02'0 0.1 20.8
2014-Dec-18 04:00N 29°23' W 138°02'1 0.5 20.8
2014-Dec-18 03:00N 29°23' W 138°02'0 0.2 20.9
2014-Dec-18 02:00N 29°23' W 138°02'1 0.7 20.9
2014-Dec-18 00:00N 29°22' W 138°03'0 0.0 21.0
2014-Dec-17 23:00N 29°22' W 138°03'1 0.4 21.0
2014-Dec-17 21:00N 29°22' W 138°04'1 0.4 20.9
2014-Dec-17 19:00N 29°21' W 138°03'1 0.8 20.8
2014-Dec-17 18:00N 29°20' W 138°03'0 0.0 20.8
2014-Dec-17 17:00N 29°20' W 138°03'1 0.4 20.8
2014-Dec-17 15:00N 29°21' W 138°02'0 0.0 20.8
2014-Dec-17 14:00N 29°21' W 138°02'0 0.3 20.8
2014-Dec-17 13:00N 29°21' W 138°02'0 0.0 20.8
2014-Dec-17 12:00N 29°21' W 138°02'1 0.2 20.8
2014-Dec-17 09:00N 29°21' W 138°02'1 0.4 20.8
2014-Dec-17 07:00N 29°22' W 138°03'0 0.4 20.8
2014-Dec-17 06:00N 29°21' W 138°03'0 0.1 20.8
2014-Dec-17 03:00N 29°21' W 138°03'0 0.3 20.8
2014-Dec-17 02:00N 29°21' W 138°04'1 0.3 20.8
2014-Dec-17 00:00N 29°20' W 138°04'0 0.1 20.8
2014-Dec-16 23:00N 29°20' W 138°04'1 0.3 20.8
2014-Dec-16 21:00N 29°20' W 138°04'0 0.3 20.8
2014-Dec-16 20:00N 29°20' W 138°04'1 0.5 20.8
2014-Dec-16 19:00N 29°20' W 138°04'0 0.0 20.8
2014-Dec-16 18:00N 29°20' W 138°04'1 0.6 20.8
2014-Dec-16 17:00N 29°19' W 138°04'1 0.0 20.8
2014-Dec-15 23:00N 29°19' W 138°04'1 0.8 20.9
2014-Dec-15 22:00N 29°19' W 138°05'0 0.0 20.9
2014-Dec-15 21:00N 29°19' W 138°05'1 0.3 20.9
2014-Dec-15 18:00N 29°18' W 138°04'0 0.0 20.9
2014-Dec-15 17:00N 29°18' W 138°04'1 0.6 20.9
2014-Dec-15 15:00N 29°17' W 138°03'1 0.3 20.9
2014-Dec-15 13:00N 29°17' W 138°02'0 0.0 20.9
2014-Dec-15 12:00N 29°17' W 138°02'0 0.0 20.9
2014-Dec-15 11:00N 29°17' W 138°02'0 0.0 20.9
2014-Dec-15 09:00N 29°17' W 138°02'1 0.3 20.9
2014-Dec-15 07:00N 29°18' W 138°02'1 0.6 20.9
2014-Dec-15 06:00N 29°17' W 138°02'0 0.0 20.9
2014-Dec-15 05:00N 29°17' W 138°02'0 0.0 20.9
2014-Dec-15 04:00N 29°17' W 138°02'1 0.8 20.9
2014-Dec-15 03:00N 29°18' W 138°03'0 0.0 20.9
2014-Dec-15 02:00N 29°18' W 138°03'1 1.2 20.9
2014-Dec-15 01:00N 29°17' W 138°03'0 0.0 20.9
2014-Dec-14 23:00N 29°17' W 138°03'1 0.3 20.9
2014-Dec-14 21:00N 29°16' W 138°03'2 0.8 20.9
2014-Dec-14 19:00N 29°15' W 138°02'0 0.0 20.9
2014-Dec-14 18:00N 29°15' W 138°02'0 0.0 20.9
2014-Dec-14 15:00N 29°15' W 138°02'1 1.2 20.9
2014-Dec-14 14:00N 29°14' W 138°01'1 0.8 20.9
2014-Dec-14 13:00N 29°15' W 138°01'0 0.0 20.9
2014-Dec-14 11:00N 29°15' W 138°01'1 0.3 20.9
2014-Dec-14 07:00N 29°16' W 138°01'1 0.5 20.9
2014-Dec-14 06:00N 29°16' W 138°01'0 0.0 20.9
2014-Dec-14 05:00N 29°16' W 138°01'1 1.2 20.9
2014-Dec-14 04:00N 29°17' W 138°02'1 0.6 20.9
2014-Dec-14 03:00N 29°16' W 138°02'1 0.4 21.0
2014-Dec-14 00:00N 29°16' W 138°04'2 1.5 21.0
2014-Dec-13 23:00N 29°14' W 138°05'7 0.3 21.0
2014-Dec-13 00:00N 29°08' W 138°08'2 0.8 21.2
2014-Dec-12 22:00N 29°07' W 138°07'1 0.2 21.2
2014-Dec-12 19:00N 29°07' W 138°06'1 1.5 21.1
2014-Dec-12 18:00N 29°06' W 138°05'0 0.0 21.1
2014-Dec-12 17:00N 29°06' W 138°05'1 0.2 21.1
2014-Dec-12 14:00N 29°07' W 138°04'0 0.5 21.1
2014-Dec-12 13:00N 29°07' W 138°05'1 0.2 21.1
2014-Dec-12 05:00N 29°07' W 138°06'0 0.2 21.1
2014-Dec-12 04:00N 29°08' W 138°06'0 0.1 21.1
2014-Dec-12 02:00N 29°07' W 138°06'2 0.9 21.1
2014-Dec-12 00:00N 29°06' W 138°08'0 0.0 21.2
2014-Dec-11 23:00N 29°06' W 138°08'0 0.2 21.2
2014-Dec-11 22:00N 29°06' W 138°08'2 0.9 21.2
2014-Dec-11 20:00N 29°06' W 138°06'0 0.2 21.2
2014-Dec-11 19:00N 29°05' W 138°06'1 0.7 21.2
2014-Dec-11 18:00N 29°06' W 138°05'0 0.0 21.2
2014-Dec-11 17:00N 29°06' W 138°05'1 0.5 21.2
2014-Dec-11 15:00N 29°06' W 138°04'1 0.4 21.2
2014-Dec-11 12:00N 29°07' W 138°04'0 0.0 21.3
2014-Dec-11 10:00N 29°07' W 138°04'1 0.7 21.2
2014-Dec-11 08:00N 29°08' W 138°05'2 0.5 21.3
2014-Dec-11 05:00N 29°09' W 138°07'0 0.1 21.3
2014-Dec-11 02:00N 29°09' W 138°07'2 1.0 21.3
2014-Dec-11 00:00N 29°08' W 138°09'0 0.0 21.3
2014-Dec-10 22:00N 29°08' W 138°09'1 0.8 21.3
2014-Dec-10 21:00N 29°08' W 138°09'0 0.0 21.2
2014-Dec-10 20:00N 29°08' W 138°09'0 0.1 21.2
2014-Dec-10 18:00N 29°08' W 138°10'1 0.4 21.3
2014-Dec-10 15:00N 29°07' W 138°11'1 0.7 21.2
2014-Dec-10 14:00N 29°06' W 138°11'0 0.3 21.2
2014-Dec-10 13:00N 29°06' W 138°11'0 0.0 21.2
2014-Dec-10 12:00N 29°06' W 138°11'0 0.0 21.2
2014-Dec-10 11:00N 29°06' W 138°11'1 0.3 21.2
2014-Dec-10 06:00N 29°05' W 138°12'0 0.2 21.3
2014-Dec-10 05:00N 29°05' W 138°12'0 0.2 21.3
2014-Dec-10 03:00N 29°06' W 138°12'0 0.1 21.3
2014-Dec-10 02:00N 29°06' W 138°12'1 0.4 21.4
2014-Dec-10 00:00N 29°06' W 138°12'   21.4
Track history (hours):
 
Tides and Currents Weather Stations Pressure Air Temp Water Temp Dewpoint Dewpoint Depression Visibility Wind Speed Wind Dir Waves Ship Positions

Drifting buoy 46612

Last reported at 2014-Dec-20 00:00 UTC. Time now 2014-Dec-20 01:38 UTC.
Position N 29°23' W 137°58'.

Water temperature 20.6 ° C

Date/timePositionNaut miles runAvg speedWind from/ knotsBaromVisibWave heightAir tempDewpointWater temp
2014-Dec-20 00:00N 29°23' W 137°58'0 0.2 20.6
2014-Dec-19 22:00N 29°23' W 137°59'0 0.0 20.8
2014-Dec-19 21:00N 29°23' W 137°59'0 0.2 20.8
2014-Dec-19 19:00N 29°23' W 137°58'0 0.1 20.7
2014-Dec-19 15:00N 29°23' W 137°59'0 0.3 20.7
2014-Dec-19 14:00N 29°23' W 137°59'0 0.1 20.7
2014-Dec-19 13:00N 29°23' W 137°59'0 0.4 20.7
2014-Dec-19 12:00N 29°23' W 137°59'0 0.0 20.7
2014-Dec-19 11:00N 29°23' W 137°59'0 0.1 20.7
2014-Dec-19 09:00N 29°23' W 137°59'0 0.2 20.7
2014-Dec-19 08:00N 29°23' W 137°59'0 0.1 20.7
2014-Dec-19 07:00N 29°23' W 137°59'0 0.2 20.8
2014-Dec-19 06:00N 29°23' W 137°59'0 0.2 20.7
2014-Dec-19 04:00N 29°23' W 137°59'1 0.3 20.7
2014-Dec-19 02:00N 29°23' W 137°60'1 0.6 20.8
2014-Dec-19 00:00N 29°24' W 137°59'2 0.6 20.8
2014-Dec-18 21:00N 29°23' W 138°01'1 0.6 20.8
2014-Dec-18 20:00N 29°23' W 138°00'0 0.5 20.8
2014-Dec-18 19:00N 29°23' W 138°01'0 0.4 20.8
2014-Dec-18 18:00N 29°23' W 138°01'0 0.0 20.8
2014-Dec-18 17:00N 29°23' W 138°01'0 0.2 20.8
2014-Dec-18 15:00N 29°23' W 138°00'1 0.7 20.8
2014-Dec-18 14:00N 29°22' W 138°00'0 0.0 20.8
2014-Dec-18 12:00N 29°22' W 138°00'0 0.0 20.8
2014-Dec-18 11:00N 29°22' W 138°00'0 0.2 20.8
2014-Dec-18 09:00N 29°22' W 138°01'0 0.2 20.8
2014-Dec-18 07:00N 29°23' W 138°01'0 0.3 20.8
2014-Dec-18 06:00N 29°22' W 138°01'1 0.9 20.8
2014-Dec-18 05:00N 29°23' W 138°02'0 0.1 20.8
2014-Dec-18 04:00N 29°23' W 138°02'1 0.5 20.8
2014-Dec-18 03:00N 29°23' W 138°02'0 0.2 20.9
2014-Dec-18 02:00N 29°23' W 138°02'1 0.7 20.9
2014-Dec-18 00:00N 29°22' W 138°03'0 0.0 21.0
2014-Dec-17 23:00N 29°22' W 138°03'1 0.4 21.0
2014-Dec-17 21:00N 29°22' W 138°04'1 0.4 20.9
2014-Dec-17 19:00N 29°21' W 138°03'1 0.8 20.8
2014-Dec-17 18:00N 29°20' W 138°03'0 0.0 20.8
2014-Dec-17 17:00N 29°20' W 138°03'1 0.4 20.8
2014-Dec-17 15:00N 29°21' W 138°02'0 0.0 20.8
2014-Dec-17 14:00N 29°21' W 138°02'0 0.3 20.8
2014-Dec-17 13:00N 29°21' W 138°02'0 0.0 20.8
2014-Dec-17 12:00N 29°21' W 138°02'1 0.2 20.8
2014-Dec-17 09:00N 29°21' W 138°02'1 0.4 20.8
2014-Dec-17 07:00N 29°22' W 138°03'0 0.4 20.8
2014-Dec-17 06:00N 29°21' W 138°03'0 0.1 20.8
2014-Dec-17 03:00N 29°21' W 138°03'0 0.3 20.8
2014-Dec-17 02:00N 29°21' W 138°04'1 0.3 20.8
2014-Dec-17 00:00N 29°20' W 138°04'0 0.1 20.8
2014-Dec-16 23:00N 29°20' W 138°04'1 0.3 20.8
2014-Dec-16 21:00N 29°20' W 138°04'0 0.3 20.8
2014-Dec-16 20:00N 29°20' W 138°04'1 0.5 20.8
2014-Dec-16 19:00N 29°20' W 138°04'0 0.0 20.8
2014-Dec-16 18:00N 29°20' W 138°04'1 0.6 20.8
2014-Dec-16 17:00N 29°19' W 138°04'1 0.0 20.8
2014-Dec-15 23:00N 29°19' W 138°04'1 0.8 20.9
2014-Dec-15 22:00N 29°19' W 138°05'0 0.0 20.9
2014-Dec-15 21:00N 29°19' W 138°05'1 0.3 20.9
2014-Dec-15 18:00N 29°18' W 138°04'0 0.0 20.9
2014-Dec-15 17:00N 29°18' W 138°04'1 0.6 20.9
2014-Dec-15 15:00N 29°17' W 138°03'1 0.3 20.9
2014-Dec-15 13:00N 29°17' W 138°02'0 0.0 20.9
2014-Dec-15 12:00N 29°17' W 138°02'0 0.0 20.9
2014-Dec-15 11:00N 29°17' W 138°02'0 0.0 20.9
2014-Dec-15 09:00N 29°17' W 138°02'1 0.3 20.9
2014-Dec-15 07:00N 29°18' W 138°02'1 0.6 20.9
2014-Dec-15 06:00N 29°17' W 138°02'0 0.0 20.9
2014-Dec-15 05:00N 29°17' W 138°02'0 0.0 20.9
2014-Dec-15 04:00N 29°17' W 138°02'1 0.8 20.9
2014-Dec-15 03:00N 29°18' W 138°03'0 0.0 20.9
2014-Dec-15 02:00N 29°18' W 138°03'1 1.2 20.9
2014-Dec-15 01:00N 29°17' W 138°03'0 0.0 20.9
2014-Dec-14 23:00N 29°17' W 138°03'1 0.3 20.9
2014-Dec-14 21:00N 29°16' W 138°03'2 0.8 20.9
2014-Dec-14 19:00N 29°15' W 138°02'0 0.0 20.9
2014-Dec-14 18:00N 29°15' W 138°02'0 0.0 20.9
2014-Dec-14 15:00N 29°15' W 138°02'1 1.2 20.9
2014-Dec-14 14:00N 29°14' W 138°01'1 0.8 20.9
2014-Dec-14 13:00N 29°15' W 138°01'0 0.0 20.9
2014-Dec-14 11:00N 29°15' W 138°01'1 0.3 20.9
2014-Dec-14 07:00N 29°16' W 138°01'1 0.5 20.9
2014-Dec-14 06:00N 29°16' W 138°01'0 0.0 20.9
2014-Dec-14 05:00N 29°16' W 138°01'1 1.2 20.9
2014-Dec-14 04:00N 29°17' W 138°02'1 0.6 20.9
2014-Dec-14 03:00N 29°16' W 138°02'1 0.4 21.0
2014-Dec-14 00:00N 29°16' W 138°04'2 1.5 21.0
2014-Dec-13 23:00N 29°14' W 138°05'7 0.3 21.0
2014-Dec-13 00:00N 29°08' W 138°08'2 0.8 21.2
2014-Dec-12 22:00N 29°07' W 138°07'1 0.2 21.2
2014-Dec-12 19:00N 29°07' W 138°06'1 1.5 21.1
2014-Dec-12 18:00N 29°06' W 138°05'0 0.0 21.1
2014-Dec-12 17:00N 29°06' W 138°05'1 0.2 21.1
2014-Dec-12 14:00N 29°07' W 138°04'0 0.5 21.1
2014-Dec-12 13:00N 29°07' W 138°05'1 0.2 21.1
2014-Dec-12 05:00N 29°07' W 138°06'0 0.2 21.1
2014-Dec-12 04:00N 29°08' W 138°06'0 0.1 21.1
2014-Dec-12 02:00N 29°07' W 138°06'2 0.9 21.1
2014-Dec-12 00:00N 29°06' W 138°08'0 0.0 21.2
2014-Dec-11 23:00N 29°06' W 138°08'0 0.2 21.2
2014-Dec-11 22:00N 29°06' W 138°08'2 0.9 21.2
2014-Dec-11 20:00N 29°06' W 138°06'0 0.2 21.2
2014-Dec-11 19:00N 29°05' W 138°06'1 0.7 21.2
2014-Dec-11 18:00N 29°06' W 138°05'0 0.0 21.2
2014-Dec-11 17:00N 29°06' W 138°05'1 0.5 21.2
2014-Dec-11 15:00N 29°06' W 138°04'1 0.4 21.2
2014-Dec-11 12:00N 29°07' W 138°04'0 0.0 21.3
2014-Dec-11 10:00N 29°07' W 138°04'1 0.7 21.2
2014-Dec-11 08:00N 29°08' W 138°05'2 0.5 21.3
2014-Dec-11 05:00N 29°09' W 138°07'0 0.1 21.3
2014-Dec-11 02:00N 29°09' W 138°07'2 1.0 21.3
2014-Dec-11 00:00N 29°08' W 138°09'0 0.0 21.3
2014-Dec-10 22:00N 29°08' W 138°09'1 0.8 21.3
2014-Dec-10 21:00N 29°08' W 138°09'0 0.0 21.2
2014-Dec-10 20:00N 29°08' W 138°09'0 0.1 21.2
2014-Dec-10 18:00N 29°08' W 138°10'1 0.4 21.3
2014-Dec-10 15:00N 29°07' W 138°11'1 0.7 21.2
2014-Dec-10 14:00N 29°06' W 138°11'0 0.3 21.2
2014-Dec-10 13:00N 29°06' W 138°11'0 0.0 21.2
2014-Dec-10 12:00N 29°06' W 138°11'0 0.0 21.2
2014-Dec-10 11:00N 29°06' W 138°11'1 0.3 21.2
2014-Dec-10 06:00N 29°05' W 138°12'0 0.2 21.3
2014-Dec-10 05:00N 29°05' W 138°12'0 0.2 21.3
2014-Dec-10 03:00N 29°06' W 138°12'0 0.1 21.3
2014-Dec-10 02:00N 29°06' W 138°12'1 0.4 21.4
2014-Dec-10 00:00N 29°06' W 138°12'   21.4

Dump ship's entire track history